バミューダ の空港の天気 - METARとTAF

バミューダ国際空港 ( TXKF / BDA ) - バミューダ諸島 Ferry Reach
飛行場実況気象(Metar)
観測時間07/28 22:55 ADT (07/29 01:55 UTC)
風向・風速西南西 6m/s
視程10km以上
天気現象周辺でしゅう雨
全天の4割程度の雲 雲底高度 400m
全天の8割程度の雲 雲底高度 9140m
気温27℃
湿度84%
気圧1018hPa
METARTXKF 290155Z 25011KT 9999 VCSH SCT013 BKN300 27/24 Q1018
過去の天気等 Google飛行場航空写真 Wunderground天気予報

過去48時間のMETAR

飛行場予報(TAF)
発表時間: 7/28 20:37 ADT (7/28 23:37 UTC)
予報対象時間: 28日21時 ADT ~ 29日21時 ADT
風向・風速南西 8m/s
視程10km以上
天気現象周辺でしゅう雨
少しの雲 雲底高度 490m
全天の4割程度の雲 雲底高度 1520m
全天の8割程度の雲 雲底高度 3960m
28日21時 ADT ~ 29日21時 ADT に 確率 30% で一時的に
視程4000m
天気現象しゅう雨
全天の8割程度の雲 雲底高度 430m
29日15時 ADT ~ 29日21時 ADT に 確率 40% で一時的に
風向・風速南西 8m/s 瞬間風速 13m/s
視程2000m
天気現象強いしゅう雨
全天の8割程度の積乱雲 雲底高度 370m
TAF TXKF 282337Z 2900/2924 23015KT 9999 VCSH FEW016 SCT050 BKN130
PROB30 TEMPO 2900/2924 4000 SHRA BKN014
PROB40 TEMPO 2918/2924 23015G25KT 2000 +SHRA BKN012CB